Flight Track Log - Related Links

Times and Time Zones

All times are in EDT time to prevent confusion due to time zone crossing. See the DAL3970 flight status page for this flight to view local times or setup timezone preferences in your user account.


Time Position Orientation Groundspeed Altitude Reporting Facility
EDT Latitude Longitude Course Direction KTS MPH feet Rate Location/Type
Tue 07:49:29 AM 44.7692 -89.7289 149° Southeast 158 182 3,300  Level Minneapolis Center
Tue 07:50:31 AM 44.7489 -89.8294 254° West 233 268 5,700 2,780 Climbing Minneapolis Center
Tue 07:51:00 AM 44.6194 -89.2337 148° Southeast  Level Estimated
Tue 07:51:32 AM 44.7286 -89.9236 253° West 243 280 9,000  Level Minneapolis Center
Tue 07:52:00 AM 44.5663 -89.0898 151° Southeast  Level Estimated
Tue 07:52:33 AM 44.7050 -90.0047 248° West 254 292 11,300  Level Minneapolis Center
Tue 07:53:00 AM 44.5130 -88.9462 144° Southeast  Level Estimated
Tue 07:53:34 AM 44.6242 -89.9703 163° South 333 383 12,900  Level Minneapolis Center
Tue 07:54:00 AM 44.4595 -88.8029 149° Southeast  Level Estimated
Tue 07:54:35 AM 44.5378 -89.8772 142° Southeast 378 435 14,100  Level Minneapolis Center
Tue 07:55:36 AM 44.4453 -89.8156 155° Southeast 382 440 15,600 1,672 Climbing Minneapolis Center
Tue 07:56:37 AM 44.3442 -89.7458 154° Southeast 388 447 17,500 1,623 Climbing Minneapolis Center
Tue 07:57:38 AM 44.2561 -89.6369 138° Southeast 408 470 18,900 1,171 Climbing Minneapolis Center
Tue 07:58:40 AM 44.1661 -89.5297 139° Southeast 420 483 19,900 976 Climbing Minneapolis Center
Tue 07:59:41 AM 44.0747 -89.4189 139° Southeast 435 501 20,900 1,082 Climbing Minneapolis Center
Tue 08:00:42 AM 43.9831 -89.3072 139° Southeast 437 503 22,100 1,180 Climbing Minneapolis Center
Tue 08:01:43 AM 43.8917 -89.1986 139° Southeast 434 499 23,300 984 Climbing Minneapolis Center
Tue 08:02:44 AM 43.8003 -89.0886 139° Southeast 433 498 24,100 738 Climbing Minneapolis Center
Tue 08:03:45 AM 43.7081 -88.9786 139° Southeast 437 503 24,800 639 Climbing Minneapolis Center
Tue 08:04:46 AM 43.6322 -88.8389 127° Southeast 474 545 25,400 585 Climbing Minneapolis Center
Tue 08:05:48 AM 43.6169 -88.6433 96° East 503 579 26,000 563 Climbing Minneapolis Center
Tue 08:06:54 AM 43.5992 -88.4083 96° East 515 593 26,600 469 Climbing Chicago Center
Tue 08:07:56 AM 43.5828 -88.2075 96° East 519 597 27,000 195 Climbing Chicago Center
Tue 08:08:57 AM 43.5664 -88.0058 96° East 523 602 27,000  Level Chicago Center
Tue 08:09:59 AM 43.5503 -87.8042 96° East 527 606 27,000  Level Chicago Center
Tue 08:11:01 AM 43.5331 -87.6022 97° East 528 608 27,000  Level Chicago Center
Tue 08:12:03 AM 43.5144 -87.4022 97° East 527 606 27,000  Level Chicago Center
Tue 08:13:05 AM 43.4978 -87.1983 96° East 526 605 27,000  Level Chicago Center
Tue 08:14:06 AM 43.4792 -87.0000 97° East 524 603 27,000  Level Chicago Center
Tue 08:15:08 AM 43.4614 -86.8022 97° East 522 601 27,000  Level Chicago Center
Tue 08:16:00 AM 43.4442 -86.6017 97° East 525 604 27,000  Level Minneapolis Center
Tue 08:17:12 AM 43.4211 -86.3653 98° East 522 601 27,000  Level Chicago Center
Tue 08:18:14 AM 43.4022 -86.1661 97° East 521 600 27,000  Level Chicago Center
Tue 08:19:16 AM 43.3811 -85.9667 98° East 522 601 27,000  Level Chicago Center
Tue 08:20:17 AM 43.3469 -85.7722 104° East 519 597 27,000 -484 Level Chicago Center
Tue 08:21:20 AM 43.3122 -85.5792 104° East 516 594 26,000 -1,306 Descending Chicago Center
Tue 08:22:21 AM 43.2783 -85.3867 104° East 516 594 24,300 -1,689 Descending Chicago Center
Tue 08:23:03 AM 43.2483 -85.2325 105° East 516 594 23,100 -765 Descending Cleveland Center
Tue 08:24:03 AM 43.2156 -85.0533 104° East 501 577 23,000 -50 Descending Cleveland Center
Tue 08:25:03 AM 43.1828 -84.8772 104° East 482 555 23,000 -150 Level Cleveland Center
Tue 08:26:03 AM 43.1850 -84.6978 89° East 477 549 22,700 -1,100 Descending Cleveland Center
Tue 08:27:03 AM 43.2039 -84.5169 82° East 468 539 20,800 -1,850 Descending Cleveland Center
Tue 08:28:03 AM 43.2244 -84.3414 81° East 468 539 19,000 -1,600 Descending Cleveland Center
Tue 08:29:03 AM 43.1806 -84.2133 115° Southeast 413 475 17,600 -1,450 Descending Cleveland Center
Tue 08:30:03 AM 43.1006 -84.1006 134° Southeast 399 459 16,100 -1,550 Descending Cleveland Center
Tue 08:31:03 AM 43.0225 -83.9939 135° Southeast 399 459 14,500 -1,676 Descending Cleveland Center
Tue 08:31:54 AM 42.9503 -83.8936 135° Southeast 380 437 13,000 -1,683 Descending Cleveland Center
Tue 08:32:25 AM 42.9144 -83.8406 133° Southeast 376 433 12,200 -870 Descending Cleveland Center
Tue 08:33:03 AM 42.8761 -83.7933 138° Southeast 382 440 12,000 -197 Descending Cleveland Center
Tue 08:33:26 AM 42.8439 -83.7492 135° Southeast 334 384 12,000  Level Cleveland Center
Tue 08:34:03 AM 42.8050 -83.7217 153° Southeast 350 403 12,000 -197 Level Cleveland Center
Tue 08:34:27 AM 42.7722 -83.7003 154° Southeast 242 278 11,800 -1,100 Descending Cleveland Center
Tue 08:35:03 AM 42.7417 -83.6817 156° South 290 334 10,900 -1,672 Descending Cleveland Center
Tue 08:35:28 AM 42.7086 -83.6631 158° South 236 272 10,100 -1,400 Descending Cleveland Center
Tue 08:36:03 AM 42.6822 -83.6450 153° Southeast 264 304 9,500 -831 Descending Cleveland Center
Tue 08:36:33 AM 42.6506 -83.6247 155° Southeast 224 258 9,200 -480 Descending FAA TRACON SMA TRACON (SMA)
Tue 08:36:53 AM 42.6331 -83.6144 157° South 223 257 9,100 -750 Descending FAA TRACON SMA TRACON (SMA)
Tue 08:37:13 AM 42.6108 -83.6014 157° South 225 259 8,700 -1,050 Descending FAA TRACON SMA TRACON (SMA)
Tue 08:37:33 AM 42.5931 -83.5908 156° South 226 260 8,400 -1,050 Descending FAA TRACON SMA TRACON (SMA)
Tue 08:37:53 AM 42.5761 -83.5781 151° Southeast 239 275 8,000 -1,050 Descending FAA TRACON SMA TRACON (SMA)
Tue 08:38:13 AM 42.5672 -83.5453 110° East 249 287 7,700 -1,050 Descending FAA TRACON SMA TRACON (SMA)
Tue 08:38:33 AM 42.5656 -83.5164 94° East 247 284 7,300 -1,171 Descending FAA TRACON SMA TRACON (SMA)
Tue 08:38:54 AM 42.5639 -83.4872 94° East 252 290 6,900 -1,200 Descending FAA TRACON SMA TRACON (SMA)
Tue 08:39:13 AM 42.5653 -83.4517 87° East 242 278 6,500 -1,231 Descending FAA TRACON SMA TRACON (SMA)
Tue 08:39:33 AM 42.5692 -83.4250 79° East 223 257 6,100 -571 Descending FAA TRACON SMA TRACON (SMA)
Tue 08:39:55 AM 42.5750 -83.3928 76° East 228 262 6,100 -146 Level FAA TRACON SMA TRACON (SMA)
Tue 08:40:14 AM 42.5794 -83.3664 77° East 231 266 6,000 -154 Descending FAA TRACON SMA TRACON (SMA)
Tue 08:40:34 AM 42.5839 -83.3397 77° East 234 269 6,000 -150 Level FAA TRACON SMA TRACON (SMA)
Tue 08:40:54 AM 42.5886 -83.3131 76° East 234 269 5,900 -900 Descending FAA TRACON SMA TRACON (SMA)
Tue 08:41:14 AM 42.5939 -83.2803 78° East 232 267 5,400 -1,500 Descending FAA TRACON SMA TRACON (SMA)
Tue 08:41:34 AM 42.5981 -83.2544 78° East 230 265 4,900 -1,300 Descending FAA TRACON SMA TRACON (SMA)
Tue 08:42:14 AM 42.5908 -83.1997 100° East 219 252 4,100 -900 Descending FAA TRACON SMA TRACON (SMA)
Tue 08:42:34 AM 42.5856 -83.1769 107° East 201 231 4,000 -150 Descending FAA TRACON SMA TRACON (SMA)
Tue 08:42:54 AM 42.5714 -83.1592 137° Southeast 188 216 4,000  Level FAA TRACON SMA TRACON (SMA)
Tue 08:43:14 AM 42.5567 -83.1469 149° Southeast 187 215 4,000  Level FAA TRACON SMA TRACON (SMA)
Tue 08:43:34 AM 42.5411 -83.1439 172° South 181 208 4,000  Level FAA TRACON SMA TRACON (SMA)
Tue 08:43:54 AM 42.5231 -83.1447 182° South 175 201 4,000  Level FAA TRACON SMA TRACON (SMA)
Tue 08:44:14 AM 42.5100 -83.1525 204° Southwest 171 197 4,000  Level FAA TRACON SMA TRACON (SMA)
Tue 08:44:34 AM 42.4961 -83.1636 211° Southwest 164 189 4,000  Level FAA TRACON SMA TRACON (SMA)
Tue 08:44:54 AM 42.4836 -83.1753 215° Southwest 155 178 4,000  Level FAA TRACON SMA TRACON (SMA)
Tue 08:45:14 AM 42.4714 -83.1864 214° Southwest 155 178 4,000  Level FAA TRACON SMA TRACON (SMA)
Tue 08:45:34 AM 42.4597 -83.1958 211° Southwest 157 181 4,000  Level FAA TRACON SMA TRACON (SMA)
Tue 08:45:54 AM 42.4453 -83.2056 206° Southwest 157 181 4,000  Level FAA TRACON SMA TRACON (SMA)
Tue 08:46:15 AM 42.4331 -83.2139 207° Southwest 157 181 4,000  Level FAA TRACON SMA TRACON (SMA)
Tue 08:46:35 AM 42.4217 -83.2214 206° Southwest 156 180 4,000  Level FAA TRACON SMA TRACON (SMA)
Tue 08:46:55 AM 42.4075 -83.2317 208° Southwest 154 177 4,000  Level FAA TRACON SMA TRACON (SMA)
Tue 08:47:14 AM 42.3969 -83.2400 210° Southwest 152 175 4,000 154 Level FAA TRACON SMA TRACON (SMA)
Tue 08:47:34 AM 42.3831 -83.2506 209° Southwest 156 180 4,100  Climbing FAA TRACON SMA TRACON (SMA)
Tue 08:47:54 AM 42.3714 -83.2594 209° Southwest 162 186 4,000 -600 Descending FAA TRACON SMA TRACON (SMA)
Tue 08:48:14 AM 42.3561 -83.2706 208° Southwest 168 193 3,700 -900 Descending FAA TRACON SMA TRACON (SMA)
Tue 08:48:34 AM 42.3436 -83.2800 209° Southwest 173 199 3,400 -1,050 Descending FAA TRACON SMA TRACON (SMA)
Tue 08:48:54 AM 42.3278 -83.2914 208° Southwest 178 205 3,000 -1,050 Descending FAA TRACON SMA TRACON (SMA)
Tue 08:49:14 AM 42.3119 -83.3031 209° Southwest 180 207 2,700 -900 Descending FAA TRACON SMA TRACON (SMA)
Tue 08:49:34 AM 42.2992 -83.3125 209° Southwest 178 205 2,400 -900 Descending FAA TRACON SMA TRACON (SMA)

Login

Don't have an account? Register now (free) for customized features, flight alerts, and more!